sensor_id;sensor_type;location;lat;lon;timestamp;pressure;altitude;pressure_sealevel;temperature;humidity
68594;BME280;55563;52.416;13.548;2023-04-02T00:08:39;100774.72;;;2.37;100.00
68594;BME280;55563;52.416;13.548;2023-04-02T00:10:50;100785.88;;;2.31;100.00
68594;BME280;55563;52.416;13.548;2023-04-02T00:15:28;100786.50;;;2.40;100.00
68594;BME280;55563;52.416;13.548;2023-04-02T00:17:29;100794.47;;;2.32;100.00
68594;BME280;55563;52.416;13.548;2023-04-02T00:19:35;100794.47;;;2.32;100.00
68594;BME280;55563;52.416;13.548;2023-04-02T00:21:38;100795.88;;;2.34;100.00
68594;BME280;55563;52.416;13.548;2023-04-02T00:23:42;100796.25;;;2.31;100.00
68594;BME280;55563;52.416;13.548;2023-04-02T00:25:44;100803.06;;;2.32;100.00
68594;BME280;55563;52.416;13.548;2023-04-02T00:27:46;100779.53;;;2.34;100.00
68594;BME280;55563;52.416;13.548;2023-04-02T00:29:50;100802.88;;;2.34;100.00
68594;BME280;55563;52.416;13.548;2023-04-02T00:31:52;100806.25;;;2.34;100.00
68594;BME280;55563;52.416;13.548;2023-04-02T00:33:54;100805.84;;;2.37;100.00
68594;BME280;55563;52.416;13.548;2023-04-02T00:35:55;100817.22;;;2.30;100.00
68594;BME280;55563;52.416;13.548;2023-04-02T00:37:56;100813.25;;;2.34;100.00
68594;BME280;55563;52.416;13.548;2023-04-02T00:40:00;100818.81;;;2.31;100.00
68594;BME280;55563;52.416;13.548;2023-04-02T00:42:02;100819.00;;;2.36;100.00
68594;BME280;55563;52.416;13.548;2023-04-02T00:44:10;100834.38;;;2.37;100.00
68594;BME280;55563;52.416;13.548;2023-04-02T00:46:16;100821.03;;;2.34;100.00
68594;BME280;55563;52.416;13.548;2023-04-02T00:48:33;100828.41;;;2.30;100.00
68594;BME280;55563;52.416;13.548;2023-04-02T00:50:40;100838.19;;;2.35;100.00
68594;BME280;55563;52.416;13.548;2023-04-02T00:52:43;100837.97;;;2.30;100.00
68594;BME280;55563;52.416;13.548;2023-04-02T00:54:50;100843.53;;;2.27;100.00
68594;BME280;55563;52.416;13.548;2023-04-02T00:56:54;100848.72;;;2.27;100.00
68594;BME280;55563;52.416;13.548;2023-04-02T00:58:56;100857.72;;;2.24;100.00
68594;BME280;55563;52.416;13.548;2023-04-02T01:00:58;100850.75;;;2.25;100.00
68594;BME280;55563;52.416;13.548;2023-04-02T01:05:33;100853.72;;;2.22;100.00
68594;BME280;55563;52.416;13.548;2023-04-02T01:15:10;100875.66;;;2.19;100.00
68594;BME280;55563;52.416;13.548;2023-04-02T01:19:48;100880.84;;;2.19;100.00
68594;BME280;55563;52.416;13.548;2023-04-02T01:22:08;100886.41;;;2.16;100.00
68594;BME280;55563;52.416;13.548;2023-04-02T01:24:14;100888.00;;;2.17;100.00
68594;BME280;55563;52.416;13.548;2023-04-02T01:26:26;100884.44;;;2.18;100.00
68594;BME280;55563;52.416;13.548;2023-04-02T01:28:57;100890.03;;;2.15;100.00
68594;BME280;55563;52.416;13.548;2023-04-02T01:31:01;100890.19;;;2.13;100.00
68594;BME280;55563;52.416;13.548;2023-04-02T01:33:03;100895.56;;;2.12;100.00
68594;BME280;55563;52.416;13.548;2023-04-02T01:35:06;100887.00;;;2.11;100.00
68594;BME280;55563;52.416;13.548;2023-04-02T01:37:32;100893.38;;;2.09;100.00
68594;BME280;55563;52.416;13.548;2023-04-02T01:39:54;100899.19;;;2.11;100.00
68594;BME280;55563;52.416;13.548;2023-04-02T01:42:13;100914.13;;;2.09;100.00
68594;BME280;55563;52.416;13.548;2023-04-02T01:44:25;100913.50;;;2.07;100.00
68594;BME280;55563;52.416;13.548;2023-04-02T01:46:31;100913.72;;;2.12;100.00
68594;BME280;55563;52.416;13.548;2023-04-02T01:48:32;100924.09;;;2.12;100.00
68594;BME280;55563;52.416;13.548;2023-04-02T01:50:35;100924.09;;;2.12;100.00
68594;BME280;55563;52.416;13.548;2023-04-02T01:52:40;100923.88;;;2.07;100.00
68594;BME280;55563;52.416;13.548;2023-04-02T01:54:43;100925.66;;;2.06;100.00
68594;BME280;55563;52.416;13.548;2023-04-02T01:56:45;100928.47;;;2.11;100.00
68594;BME280;55563;52.416;13.548;2023-04-02T01:58:47;100935.84;;;2.08;100.00
68594;BME280;55563;52.416;13.548;2023-04-02T02:00:52;100935.06;;;2.07;100.00
68594;BME280;55563;52.416;13.548;2023-04-02T02:02:58;100940.63;;;2.04;100.00
68594;BME280;55563;52.416;13.548;2023-04-02T02:05:00;100939.84;;;2.04;100.00
68594;BME280;55563;52.416;13.548;2023-04-02T02:07:02;100951.00;;;2.04;100.00
68594;BME280;55563;52.416;13.548;2023-04-02T02:09:06;100956.78;;;2.06;100.00
68594;BME280;55563;52.416;13.548;2023-04-02T02:11:14;100948.81;;;2.01;100.00
68594;BME280;55563;52.416;13.548;2023-04-02T02:13:16;100962.34;;;2.03;100.00
68594;BME280;55563;52.416;13.548;2023-04-02T02:15:20;100970.94;;;2.04;100.00
68594;BME280;55563;52.416;13.548;2023-04-02T02:17:26;100969.72;;;2.00;100.00
68594;BME280;55563;52.416;13.548;2023-04-02T02:19:35;100961.97;;;2.06;100.00
68594;BME280;55563;52.416;13.548;2023-04-02T02:21:42;100974.34;;;2.04;100.00
68594;BME280;55563;52.416;13.548;2023-04-02T02:23:43;100968.97;;;2.06;100.00
68594;BME280;55563;52.416;13.548;2023-04-02T02:25:45;100979.28;;;1.99;100.00
68594;BME280;55563;52.416;13.548;2023-04-02T02:30:35;100983.28;;;2.02;100.00
68594;BME280;55563;52.416;13.548;2023-04-02T02:32:51;100985.09;;;2.01;100.00
68594;BME280;55563;52.416;13.548;2023-04-02T02:35:07;100998.25;;;2.00;100.00
68594;BME280;55563;52.416;13.548;2023-04-02T02:37:16;100995.84;;;1.98;100.00
68594;BME280;55563;52.416;13.548;2023-04-02T02:39:38;101003.44;;;2.00;100.00
68594;BME280;55563;52.416;13.548;2023-04-02T02:41:52;101009.59;;;1.99;100.00
68594;BME280;55563;52.416;13.548;2023-04-02T02:44:05;101005.03;;;2.01;100.00
68594;BME280;55563;52.416;13.548;2023-04-02T02:46:15;101008.84;;;2.05;100.00
68594;BME280;55563;52.416;13.548;2023-04-02T02:48:19;101020.38;;;2.02;100.00
68594;BME280;55563;52.416;13.548;2023-04-02T02:50:25;101018.19;;;1.99;100.00
68594;BME280;55563;52.416;13.548;2023-04-02T02:52:31;101009.59;;;1.99;100.00
68594;BME280;55563;52.416;13.548;2023-04-02T02:54:41;101025.78;;;2.01;100.00
68594;BME280;55563;52.416;13.548;2023-04-02T02:56:48;101017.16;;;1.94;100.00
68594;BME280;55563;52.416;13.548;2023-04-02T02:58:51;101021.34;;;1.95;100.00
68594;BME280;55563;52.416;13.548;2023-04-02T03:00:57;101029.72;;;1.97;100.00
68594;BME280;55563;52.416;13.548;2023-04-02T03:02:58;101036.72;;;1.96;100.00
68594;BME280;55563;52.416;13.548;2023-04-02T03:05:04;101035.53;;;1.99;100.00
68594;BME280;55563;52.416;13.548;2023-04-02T03:07:07;101049.28;;;1.99;100.00
68594;BME280;55563;52.416;13.548;2023-04-02T03:09:16;101055.63;;;1.97;100.00
68594;BME280;55563;52.416;13.548;2023-04-02T03:11:27;101044.50;;;1.96;100.00
68594;BME280;55563;52.416;13.548;2023-04-02T03:13:34;101059.47;;;2.01;100.00
68594;BME280;55563;52.416;13.548;2023-04-02T03:15:50;101078.59;;;2.00;100.00
68594;BME280;55563;52.416;13.548;2023-04-02T03:18:01;101057.06;;;1.99;100.00
68594;BME280;55563;52.416;13.548;2023-04-02T03:20:16;101071.00;;;1.98;100.00
68594;BME280;55563;52.416;13.548;2023-04-02T03:22:25;101069.84;;;2.01;100.00
68594;BME280;55563;52.416;13.548;2023-04-02T03:26:53;101079.41;;;2.00;100.00
68594;BME280;55563;52.416;13.548;2023-04-02T03:29:02;101087.34;;;1.99;100.00
68594;BME280;55563;52.416;13.548;2023-04-02T03:31:07;101085.56;;;1.99;100.00
68594;BME280;55563;52.416;13.548;2023-04-02T03:33:16;101090.75;;;1.99;100.00
68594;BME280;55563;52.416;13.548;2023-04-02T03:35:30;101097.97;;;2.04;100.00
68594;BME280;55563;52.416;13.548;2023-04-02T03:37:39;101099.94;;;2.02;100.00
68594;BME280;55563;52.416;13.548;2023-04-02T03:39:48;101106.50;;;1.98;100.00
68594;BME280;55563;52.416;13.548;2023-04-02T03:41:57;101100.50;;;1.97;100.00
68594;BME280;55563;52.416;13.548;2023-04-02T03:44:04;101103.91;;;1.98;100.00
68594;BME280;55563;52.416;13.548;2023-04-02T03:46:28;101106.50;;;1.98;100.00
68594;BME280;55563;52.416;13.548;2023-04-02T03:48:38;101109.09;;;1.98;100.00
68594;BME280;55563;52.416;13.548;2023-04-02T03:51:19;101113.91;;;2.01;100.00
68594;BME280;55563;52.416;13.548;2023-04-02T03:53:07;101117.31;;;2.01;100.00
68594;BME280;55563;52.416;13.548;2023-04-02T03:55:12;101123.09;;;2.03;100.00
68594;BME280;55563;52.416;13.548;2023-04-02T03:57:25;101121.47;;;2.02;100.00
68594;BME280;55563;52.416;13.548;2023-04-02T03:59:41;101130.25;;;2.01;100.00
68594;BME280;55563;52.416;13.548;2023-04-02T04:01:51;101135.63;;;2.00;100.00
68594;BME280;55563;52.416;13.548;2023-04-02T04:03:56;101143.41;;;2.00;100.00
68594;BME280;55563;52.416;13.548;2023-04-02T04:06:08;101143.22;;;2.01;100.00
68594;BME280;55563;52.416;13.548;2023-04-02T04:08:16;101145.19;;;1.99;100.00
68594;BME280;55563;52.416;13.548;2023-04-02T04:10:22;101162.34;;;2.00;100.00
68594;BME280;55563;52.416;13.548;2023-04-02T04:12:35;101159.56;;;2.02;100.00
68594;BME280;55563;52.416;13.548;2023-04-02T04:14:47;101156.53;;;1.98;100.00
68594;BME280;55563;52.416;13.548;2023-04-02T04:16:58;101165.75;;;2.01;100.00
68594;BME280;55563;52.416;13.548;2023-04-02T04:19:05;101179.88;;;1.98;100.00
68594;BME280;55563;52.416;13.548;2023-04-02T04:21:22;101178.09;;;1.99;100.00
68594;BME280;55563;52.416;13.548;2023-04-02T04:24:00;101180.84;;;1.97;100.00
68594;BME280;55563;52.416;13.548;2023-04-02T04:26:16;101189.44;;;1.98;100.00
68594;BME280;55563;52.416;13.548;2023-04-02T04:28:25;101193.63;;;1.99;100.00
68594;BME280;55563;52.416;13.548;2023-04-02T04:30:38;101187.06;;;1.96;100.00
68594;BME280;55563;52.416;13.548;2023-04-02T04:32:53;101191.44;;;1.96;100.00
68594;BME280;55563;52.416;13.548;2023-04-02T04:35:14;101203.03;;;2.00;100.00
68594;BME280;55563;52.416;13.548;2023-04-02T04:37:23;101199.25;;;2.02;100.00
68594;BME280;55563;52.416;13.548;2023-04-02T04:39:44;101205.63;;;2.00;100.00
68594;BME280;55563;52.416;13.548;2023-04-02T04:41:48;101208.22;;;2.00;100.00
68594;BME280;55563;52.416;13.548;2023-04-02T04:44:15;101213.56;;;1.98;100.00
68594;BME280;55563;52.416;13.548;2023-04-02T04:47:02;101215.00;;;2.01;100.00
68594;BME280;55563;52.416;13.548;2023-04-02T04:48:57;101218.56;;;2.00;100.00
68594;BME280;55563;52.416;13.548;2023-04-02T04:51:21;101226.53;;;1.98;100.00
68594;BME280;55563;52.416;13.548;2023-04-02T04:53:26;101231.53;;;2.00;100.00
68594;BME280;55563;52.416;13.548;2023-04-02T04:55:36;101231.78;;;2.05;100.00
68594;BME280;55563;52.416;13.548;2023-04-02T04:57:39;101232.94;;;2.02;100.00
68594;BME280;55563;52.416;13.548;2023-04-02T04:59:47;101235.19;;;2.05;100.00
68594;BME280;55563;52.416;13.548;2023-04-02T05:01:56;101244.75;;;2.05;100.00
68594;BME280;55563;52.416;13.548;2023-04-02T05:04:05;101249.94;;;2.05;100.00
68594;BME280;55563;52.416;13.548;2023-04-02T05:06:25;101252.53;;;2.05;100.00
68594;BME280;55563;52.416;13.548;2023-04-02T05:08:35;101256.34;;;2.09;100.00
68594;BME280;55563;52.416;13.548;2023-04-02T05:10:44;101268.31;;;2.10;100.00
68594;BME280;55563;52.416;13.548;2023-04-02T05:13:41;101266.53;;;2.10;100.00
68594;BME280;55563;52.416;13.548;2023-04-02T05:15:38;101273.13;;;2.13;100.00
68594;BME280;55563;52.416;13.548;2023-04-02T05:17:49;101273.75;;;2.15;100.00
68594;BME280;55563;52.416;13.548;2023-04-02T05:19:58;101269.38;;;2.15;100.00
68594;BME280;55563;52.416;13.548;2023-04-02T05:22:26;101275.16;;;2.17;100.00
68594;BME280;55563;52.416;13.548;2023-04-02T05:24:42;101286.94;;;2.20;100.00
68594;BME280;55563;52.416;13.548;2023-04-02T05:26:46;101288.53;;;2.21;100.00
68594;BME280;55563;52.416;13.548;2023-04-02T05:28:55;101284.53;;;2.18;100.00
68594;BME280;55563;52.416;13.548;2023-04-02T05:31:18;101293.72;;;2.21;100.00
68594;BME280;55563;52.416;13.548;2023-04-02T05:33:27;101293.72;;;2.21;100.00
68594;BME280;55563;52.416;13.548;2023-04-02T05:35:33;101303.75;;;2.24;100.00
68594;BME280;55563;52.416;13.548;2023-04-02T05:37:37;101302.75;;;2.25;100.00
68594;BME280;55563;52.416;13.548;2023-04-02T05:39:43;101305.34;;;2.25;100.00
68594;BME280;55563;52.416;13.548;2023-04-02T05:41:45;101313.91;;;2.26;100.00
68594;BME280;55563;52.416;13.548;2023-04-02T05:44:05;101323.13;;;2.28;100.00
68594;BME280;55563;52.416;13.548;2023-04-02T05:46:17;101322.94;;;2.30;100.00
68594;BME280;55563;52.416;13.548;2023-04-02T05:48:30;101321.00;;;2.38;100.00
68594;BME280;55563;52.416;13.548;2023-04-02T05:50:35;101328.81;;;2.45;100.00
68594;BME280;55563;52.416;13.548;2023-04-02T05:52:46;101330.25;;;2.47;100.00
68594;BME280;55563;52.416;13.548;2023-04-02T05:54:52;101328.06;;;2.44;100.00
68594;BME280;55563;52.416;13.548;2023-04-02T05:57:00;101338.22;;;2.46;100.00
68594;BME280;55563;52.416;13.548;2023-04-02T05:59:09;101335.75;;;2.59;100.00
68594;BME280;55563;52.416;13.548;2023-04-02T06:01:18;101337.81;;;2.70;100.00
68594;BME280;55563;52.416;13.548;2023-04-02T06:03:29;101344.44;;;2.73;100.00
68594;BME280;55563;52.416;13.548;2023-04-02T06:05:36;101355.13;;;2.63;100.00
68594;BME280;55563;52.416;13.548;2023-04-02T06:07:49;101350.50;;;2.58;100.00
68594;BME280;55563;52.416;13.548;2023-04-02T06:10:01;101349.31;;;2.61;100.00
68594;BME280;55563;52.416;13.548;2023-04-02T06:12:18;101351.16;;;2.67;100.00
68594;BME280;55563;52.416;13.548;2023-04-02T06:14:22;101357.16;;;2.68;100.00
68594;BME280;55563;52.416;13.548;2023-04-02T06:16:26;101368.78;;;2.78;100.00
68594;BME280;55563;52.416;13.548;2023-04-02T06:18:30;101366.41;;;2.77;100.00
68594;BME280;55563;52.416;13.548;2023-04-02T06:20:33;101383.34;;;2.73;100.00
68594;BME280;55563;52.416;13.548;2023-04-02T06:22:36;101366.97;;;2.72;100.00
68594;BME280;55563;52.416;13.548;2023-04-02T06:24:42;101374.44;;;2.82;100.00
68594;BME280;55563;52.416;13.548;2023-04-02T06:26:51;101372.44;;;2.84;100.00
68594;BME280;55563;52.416;13.548;2023-04-02T06:29:05;101393.78;;;2.79;100.00
68594;BME280;55563;52.416;13.548;2023-04-02T06:31:21;101380.03;;;2.85;100.00
68594;BME280;55563;52.416;13.548;2023-04-02T06:33:23;101386.94;;;2.72;100.00
68594;BME280;55563;52.416;13.548;2023-04-02T06:35:24;101390.19;;;2.80;100.00
68594;BME280;55563;52.416;13.548;2023-04-02T06:37:37;101396.19;;;2.81;100.00
68594;BME280;55563;52.416;13.548;2023-04-02T06:39:46;101392.78;;;2.80;100.00
68594;BME280;55563;52.416;13.548;2023-04-02T06:44:16;101424.00;;;2.87;100.00
68594;BME280;55563;52.416;13.548;2023-04-02T06:46:42;101413.00;;;2.85;100.00
68594;BME280;55563;52.416;13.548;2023-04-02T06:48:49;101424.25;;;2.98;100.00
68594;BME280;55563;52.416;13.548;2023-04-02T06:50:58;101419.22;;;2.90;100.00
68594;BME280;55563;52.416;13.548;2023-04-02T06:53:03;101424.59;;;2.89;100.00
68594;BME280;55563;52.416;13.548;2023-04-02T06:57:54;101430.84;;;2.94;100.00
68594;BME280;55563;52.416;13.548;2023-04-02T06:59:56;101433.53;;;3.07;100.00
68594;BME280;55563;52.416;13.548;2023-04-02T07:02:03;101435.03;;;3.23;100.00
68594;BME280;55563;52.416;13.548;2023-04-02T07:04:07;101436.00;;;3.50;100.00
68594;BME280;55563;52.416;13.548;2023-04-02T07:06:16;101442.00;;;3.98;100.00
68594;BME280;55563;52.416;13.548;2023-04-02T07:08:18;101444.00;;;3.96;100.00
68594;BME280;55563;52.416;13.548;2023-04-02T07:10:18;101452.59;;;3.97;100.00
68594;BME280;55563;52.416;13.548;2023-04-02T07:12:25;101447.94;;;4.66;100.00
68594;BME280;55563;52.416;13.548;2023-04-02T07:14:26;101457.41;;;4.93;100.00
68594;BME280;55563;52.416;13.548;2023-04-02T07:16:30;101455.56;;;4.61;100.00
68594;BME280;55563;52.416;13.548;2023-04-02T07:18:32;101454.59;;;5.08;100.00
68594;BME280;55563;52.416;13.548;2023-04-02T07:20:36;101454.56;;;5.01;100.00
68594;BME280;55563;52.416;13.548;2023-04-02T07:22:40;101465.19;;;5.06;100.00
68594;BME280;55563;52.416;13.548;2023-04-02T07:24:41;101456.72;;;5.37;100.00
68594;BME280;55563;52.416;13.548;2023-04-02T07:26:41;101464.97;;;5.34;100.00
68594;BME280;55563;52.416;13.548;2023-04-02T07:28:42;101468.00;;;5.05;100.00
68594;BME280;55563;52.416;13.548;2023-04-02T07:30:44;101465.22;;;4.93;100.00
68594;BME280;55563;52.416;13.548;2023-04-02T07:32:45;101472.22;;;4.93;100.00
68594;BME280;55563;52.416;13.548;2023-04-02T07:34:46;101474.78;;;5.39;100.00
68594;BME280;55563;52.416;13.548;2023-04-02T07:36:48;101476.13;;;5.67;100.00
68594;BME280;55563;52.416;13.548;2023-04-02T07:38:50;101470.09;;;5.74;100.00
68594;BME280;55563;52.416;13.548;2023-04-02T07:40:51;101476.31;;;5.72;100.00
68594;BME280;55563;52.416;13.548;2023-04-02T07:43:09;101478.56;;;5.43;100.00
68594;BME280;55563;52.416;13.548;2023-04-02T07:45:10;101480.03;;;5.06;100.00
68594;BME280;55563;52.416;13.548;2023-04-02T07:47:11;101489.44;;;5.13;100.00
68594;BME280;55563;52.416;13.548;2023-04-02T07:49:11;101487.03;;;5.32;100.00
68594;BME280;55563;52.416;13.548;2023-04-02T07:51:19;101487.97;;;5.63;100.00
68594;BME280;55563;52.416;13.548;2023-04-02T07:53:36;101496.16;;;5.74;100.00
68594;BME280;55563;52.416;13.548;2023-04-02T07:55:37;101493.44;;;5.29;100.00
68594;BME280;55563;52.416;13.548;2023-04-02T07:57:39;101493.56;;;5.74;100.00
68594;BME280;55563;52.416;13.548;2023-04-02T07:59:41;101499.97;;;5.78;100.00
68594;BME280;55563;52.416;13.548;2023-04-02T08:01:42;101503.75;;;5.95;100.00
68594;BME280;55563;52.416;13.548;2023-04-02T08:03:42;101524.22;;;5.98;100.00
68594;BME280;55563;52.416;13.548;2023-04-02T08:05:49;101527.28;;;5.75;100.00
68594;BME280;55563;52.416;13.548;2023-04-02T08:07:53;101522.09;;;5.42;100.00
68594;BME280;55563;52.416;13.548;2023-04-02T08:09:55;101524.38;;;6.09;100.00
68594;BME280;55563;52.416;13.548;2023-04-02T08:11:55;101520.25;;;5.89;100.00
68594;BME280;55563;52.416;13.548;2023-04-02T08:13:56;101517.03;;;6.38;100.00
68594;BME280;55563;52.416;13.548;2023-04-02T08:15:58;101523.94;;;6.19;100.00
68594;BME280;55563;52.416;13.548;2023-04-02T08:17:59;101523.63;;;6.40;100.00
68594;BME280;55563;52.416;13.548;2023-04-02T08:20:00;101520.25;;;6.33;100.00
68594;BME280;55563;52.416;13.548;2023-04-02T08:22:01;101533.72;;;6.30;100.00
68594;BME280;55563;52.416;13.548;2023-04-02T08:24:02;101524.78;;;6.13;100.00
68594;BME280;55563;52.416;13.548;2023-04-02T08:26:04;101536.06;;;5.81;100.00
68594;BME280;55563;52.416;13.548;2023-04-02T08:28:05;101537.06;;;5.86;100.00
68594;BME280;55563;52.416;13.548;2023-04-02T08:30:09;101544.72;;;5.68;100.00
68594;BME280;55563;52.416;13.548;2023-04-02T08:32:13;101543.53;;;5.38;100.00
68594;BME280;55563;52.416;13.548;2023-04-02T08:34:16;101543.94;;;5.48;100.00
68594;BME280;55563;52.416;13.548;2023-04-02T08:36:17;101545.34;;;5.70;100.00
68594;BME280;55563;52.416;13.548;2023-04-02T08:38:20;101555.19;;;5.28;100.00
68594;BME280;55563;52.416;13.548;2023-04-02T08:40:30;101554.41;;;5.21;100.00
68594;BME280;55563;52.416;13.548;2023-04-02T08:42:38;101562.00;;;5.43;100.00
68594;BME280;55563;52.416;13.548;2023-04-02T08:45:16;101560.78;;;5.06;100.00
68594;BME280;55563;52.416;13.548;2023-04-02T08:47:19;101562.19;;;5.28;100.00
68594;BME280;55563;52.416;13.548;2023-04-02T08:49:36;101568.63;;;5.45;100.00
68594;BME280;55563;52.416;13.548;2023-04-02T08:51:39;101569.59;;;4.98;100.00
68594;BME280;55563;52.416;13.548;2023-04-02T08:53:40;101582.84;;;5.23;100.00
68594;BME280;55563;52.416;13.548;2023-04-02T08:55:50;101582.84;;;5.03;100.00
68594;BME280;55563;52.416;13.548;2023-04-02T08:58:19;101584.63;;;5.09;100.00
68594;BME280;55563;52.416;13.548;2023-04-02T09:00:32;101585.81;;;5.00;100.00
68594;BME280;55563;52.416;13.548;2023-04-02T09:02:38;101592.59;;;4.81;100.00
68594;BME280;55563;52.416;13.548;2023-04-02T09:04:41;101600.22;;;4.90;100.00
68594;BME280;55563;52.416;13.548;2023-04-02T09:06:42;101599.44;;;4.89;100.00
68594;BME280;55563;52.416;13.548;2023-04-02T09:08:46;101603.44;;;4.92;100.00
68594;BME280;55563;52.416;13.548;2023-04-02T09:10:52;101601.81;;;4.77;100.00
68594;BME280;55563;52.416;13.548;2023-04-02T09:12:54;101603.25;;;4.93;100.00
68594;BME280;55563;52.416;13.548;2023-04-02T09:17:26;101626.59;;;4.67;100.00
68594;BME280;55563;52.416;13.548;2023-04-02T09:19:34;101634.94;;;4.49;100.00
68594;BME280;55563;52.416;13.548;2023-04-02T09:21:41;101623.56;;;4.57;100.00
68594;BME280;55563;52.416;13.548;2023-04-02T09:23:43;101634.31;;;4.41;100.00
68594;BME280;55563;52.416;13.548;2023-04-02T09:25:47;101635.66;;;4.77;100.00
68594;BME280;55563;52.416;13.548;2023-04-02T09:27:50;101641.63;;;4.65;100.00
68594;BME280;55563;52.416;13.548;2023-04-02T09:29:55;101627.22;;;4.75;100.00
68594;BME280;55563;52.416;13.548;2023-04-02T09:32:09;101652.75;;;5.00;100.00
68594;BME280;55563;52.416;13.548;2023-04-02T09:34:32;101639.97;;;4.51;100.00
68594;BME280;55563;52.416;13.548;2023-04-02T09:36:36;101651.53;;;4.89;100.00
68594;BME280;55563;52.416;13.548;2023-04-02T09:38:37;101649.44;;;4.65;100.00
68594;BME280;55563;52.416;13.548;2023-04-02T09:40:50;101658.50;;;4.82;100.00
68594;BME280;55563;52.416;13.548;2023-04-02T09:43:13;101666.69;;;4.72;100.00
68594;BME280;55563;52.416;13.548;2023-04-02T09:45:20;101663.78;;;4.48;100.00
68594;BME280;55563;52.416;13.548;2023-04-02T09:47:24;101669.03;;;4.54;100.00
68594;BME280;55563;52.416;13.548;2023-04-02T09:49:29;101681.81;;;4.56;100.00
68594;BME280;55563;52.416;13.548;2023-04-02T09:51:31;101678.44;;;5.03;100.00
68594;BME280;55563;52.416;13.548;2023-04-02T09:53:37;101682.72;;;5.43;100.00
68594;BME280;55563;52.416;13.548;2023-04-02T09:55:38;101670.53;;;5.96;100.00
68594;BME280;55563;52.416;13.548;2023-04-02T09:57:39;101674.13;;;6.15;100.00
68594;BME280;55563;52.416;13.548;2023-04-02T09:59:40;101671.91;;;6.25;100.00
68594;BME280;55563;52.416;13.548;2023-04-02T10:01:44;101677.31;;;6.37;100.00
68594;BME280;55563;52.416;13.548;2023-04-02T10:03:47;101677.94;;;6.83;100.00
68594;BME280;55563;52.416;13.548;2023-04-02T10:06:05;101687.47;;;6.58;100.00
68594;BME280;55563;52.416;13.548;2023-04-02T10:08:17;101687.56;;;6.25;100.00
68594;BME280;55563;52.416;13.548;2023-04-02T10:12:42;101684.56;;;5.82;100.00
68594;BME280;55563;52.416;13.548;2023-04-02T10:14:46;101698.66;;;5.94;100.00
68594;BME280;55563;52.416;13.548;2023-04-02T10:16:51;101692.81;;;6.05;100.00
68594;BME280;55563;52.416;13.548;2023-04-02T10:18:56;101695.63;;;5.91;100.00
68594;BME280;55563;52.416;13.548;2023-04-02T10:21:00;101704.47;;;5.90;100.00
68594;BME280;55563;52.416;13.548;2023-04-02T10:23:02;101708.22;;;5.67;100.00
68594;BME280;55563;52.416;13.548;2023-04-02T10:25:12;101703.66;;;5.89;100.00
68594;BME280;55563;52.416;13.548;2023-04-02T10:27:39;101715.47;;;6.05;100.00
68594;BME280;55563;52.416;13.548;2023-04-02T10:32:18;101711.66;;;6.21;100.00
68594;BME280;55563;52.416;13.548;2023-04-02T10:34:27;101717.31;;;6.18;100.00
68594;BME280;55563;52.416;13.548;2023-04-02T10:39:06;101728.50;;;5.79;100.00
68594;BME280;55563;52.416;13.548;2023-04-02T10:41:32;101719.13;;;5.97;100.00
68594;BME280;55563;52.416;13.548;2023-04-02T10:43:45;101729.97;;;6.07;100.00
68594;BME280;55563;52.416;13.548;2023-04-02T10:45:58;101731.94;;;5.79;100.00
68594;BME280;55563;52.416;13.548;2023-04-02T10:48:38;101731.16;;;5.92;100.00
68594;BME280;55563;52.416;13.548;2023-04-02T10:53:16;101747.56;;;5.72;100.00
68594;BME280;55563;52.416;13.548;2023-04-02T10:55:24;101730.09;;;5.66;100.00
68594;BME280;55563;52.416;13.548;2023-04-02T10:57:32;101745.38;;;5.83;100.00
68594;BME280;55563;52.416;13.548;2023-04-02T10:59:40;101744.78;;;5.87;100.00
68594;BME280;55563;52.416;13.548;2023-04-02T11:01:42;101743.38;;;5.91;100.00
68594;BME280;55563;52.416;13.548;2023-04-02T11:03:49;101748.00;;;5.96;100.00
68594;BME280;55563;52.416;13.548;2023-04-02T11:05:56;101763.19;;;5.59;100.00
68594;BME280;55563;52.416;13.548;2023-04-02T11:10:14;101769.09;;;5.88;100.00
68594;BME280;55563;52.416;13.548;2023-04-02T11:12:24;101767.84;;;5.84;100.00
68594;BME280;55563;52.416;13.548;2023-04-02T11:14:30;101771.44;;;5.69;100.00
68594;BME280;55563;52.416;13.548;2023-04-02T11:16:32;101772.09;;;5.91;100.00
68594;BME280;55563;52.416;13.548;2023-04-02T11:18:34;101775.28;;;5.87;100.00
68594;BME280;55563;52.416;13.548;2023-04-02T11:20:57;101778.84;;;5.72;100.00
68594;BME280;55563;52.416;13.548;2023-04-02T11:23:17;101804.50;;;5.62;100.00
68594;BME280;55563;52.416;13.548;2023-04-02T11:25:20;101787.03;;;5.56;100.00
68594;BME280;55563;52.416;13.548;2023-04-02T11:27:27;101805.13;;;5.64;100.00
68594;BME280;55563;52.416;13.548;2023-04-02T11:29:29;101794.31;;;5.74;100.00
68594;BME280;55563;52.416;13.548;2023-04-02T11:31:32;101796.91;;;5.81;100.00
68594;BME280;55563;52.416;13.548;2023-04-02T11:35:50;101798.94;;;5.79;100.00
68594;BME280;55563;52.416;13.548;2023-04-02T11:37:53;101794.09;;;5.56;100.00
68594;BME280;55563;52.416;13.548;2023-04-02T11:39:56;101805.78;;;5.80;100.00
68594;BME280;55563;52.416;13.548;2023-04-02T11:42:03;101798.47;;;5.49;100.00
68594;BME280;55563;52.416;13.548;2023-04-02T11:44:04;101805.94;;;5.71;100.00
68594;BME280;55563;52.416;13.548;2023-04-02T11:46:33;101813.94;;;5.63;100.00
68594;BME280;55563;52.416;13.548;2023-04-02T11:48:36;101811.78;;;5.74;100.00
68594;BME280;55563;52.416;13.548;2023-04-02T11:50:39;101819.66;;;5.87;100.00